sensor_id;sensor_type;location;lat;lon;timestamp;P1;durP1;ratioP1;P2;durP2;ratioP2
79464;SDS011;68932;47.410;8.232;2023-05-07T00:00:59;3.40;;;1.80;;
79464;SDS011;68932;47.410;8.232;2023-05-07T00:03:27;4.00;;;2.20;;
79464;SDS011;68932;47.410;8.232;2023-05-07T00:05:55;3.60;;;2.10;;
79464;SDS011;68932;47.410;8.232;2023-05-07T00:08:23;3.50;;;2.50;;
79464;SDS011;68932;47.410;8.232;2023-05-07T00:10:52;3.20;;;2.10;;
79464;SDS011;68932;47.410;8.232;2023-05-07T00:13:20;3.40;;;2.00;;
79464;SDS011;68932;47.410;8.232;2023-05-07T00:15:48;3.70;;;2.00;;
79464;SDS011;68932;47.410;8.232;2023-05-07T00:18:16;3.00;;;1.70;;
79464;SDS011;68932;47.410;8.232;2023-05-07T00:20:45;4.00;;;2.20;;
79464;SDS011;68932;47.410;8.232;2023-05-07T00:23:13;5.20;;;2.10;;
79464;SDS011;68932;47.410;8.232;2023-05-07T00:25:41;2.60;;;1.80;;
79464;SDS011;68932;47.410;8.232;2023-05-07T00:28:10;3.60;;;2.00;;
79464;SDS011;68932;47.410;8.232;2023-05-07T00:30:38;2.90;;;2.20;;
79464;SDS011;68932;47.410;8.232;2023-05-07T00:33:07;2.20;;;1.80;;
79464;SDS011;68932;47.410;8.232;2023-05-07T00:35:35;2.70;;;1.60;;
79464;SDS011;68932;47.410;8.232;2023-05-07T00:38:03;2.40;;;1.60;;
79464;SDS011;68932;47.410;8.232;2023-05-07T00:40:31;2.60;;;2.00;;
79464;SDS011;68932;47.410;8.232;2023-05-07T00:43:00;2.40;;;2.20;;
79464;SDS011;68932;47.410;8.232;2023-05-07T00:45:28;2.20;;;1.90;;
79464;SDS011;68932;47.410;8.232;2023-05-07T00:47:57;3.00;;;1.90;;
79464;SDS011;68932;47.410;8.232;2023-05-07T00:50:27;3.10;;;2.20;;
79464;SDS011;68932;47.410;8.232;2023-05-07T00:52:56;1.80;;;1.40;;
79464;SDS011;68932;47.410;8.232;2023-05-07T00:55:25;3.10;;;1.90;;
79464;SDS011;68932;47.410;8.232;2023-05-07T00:57:53;2.50;;;1.80;;
79464;SDS011;68932;47.410;8.232;2023-05-07T01:00:22;2.20;;;1.70;;
79464;SDS011;68932;47.410;8.232;2023-05-07T01:02:50;3.50;;;1.90;;
79464;SDS011;68932;47.410;8.232;2023-05-07T01:05:19;3.70;;;2.00;;
79464;SDS011;68932;47.410;8.232;2023-05-07T01:07:50;2.90;;;2.30;;
79464;SDS011;68932;47.410;8.232;2023-05-07T01:10:20;2.40;;;2.20;;
79464;SDS011;68932;47.410;8.232;2023-05-07T01:12:48;3.30;;;2.20;;
79464;SDS011;68932;47.410;8.232;2023-05-07T01:15:18;2.50;;;2.10;;
79464;SDS011;68932;47.410;8.232;2023-05-07T01:17:46;2.80;;;1.90;;
79464;SDS011;68932;47.410;8.232;2023-05-07T01:20:15;2.30;;;1.90;;
79464;SDS011;68932;47.410;8.232;2023-05-07T01:22:44;2.50;;;1.90;;
79464;SDS011;68932;47.410;8.232;2023-05-07T01:25:12;3.90;;;2.20;;
79464;SDS011;68932;47.410;8.232;2023-05-07T01:27:41;4.10;;;2.30;;
79464;SDS011;68932;47.410;8.232;2023-05-07T01:30:10;3.70;;;2.30;;
79464;SDS011;68932;47.410;8.232;2023-05-07T01:32:40;4.00;;;2.40;;
79464;SDS011;68932;47.410;8.232;2023-05-07T01:35:15;3.10;;;2.40;;
79464;SDS011;68932;47.410;8.232;2023-05-07T01:37:46;3.30;;;2.30;;
79464;SDS011;68932;47.410;8.232;2023-05-07T01:40:15;4.20;;;2.20;;
79464;SDS011;68932;47.410;8.232;2023-05-07T01:42:44;5.10;;;2.80;;
79464;SDS011;68932;47.410;8.232;2023-05-07T01:45:14;2.70;;;2.30;;
79464;SDS011;68932;47.410;8.232;2023-05-07T01:47:42;5.30;;;2.40;;
79464;SDS011;68932;47.410;8.232;2023-05-07T01:50:11;3.20;;;2.40;;
79464;SDS011;68932;47.410;8.232;2023-05-07T01:52:42;2.90;;;2.60;;
79464;SDS011;68932;47.410;8.232;2023-05-07T01:55:11;3.20;;;2.10;;
79464;SDS011;68932;47.410;8.232;2023-05-07T01:57:39;4.30;;;2.60;;
79464;SDS011;68932;47.410;8.232;2023-05-07T02:00:08;5.50;;;2.60;;
79464;SDS011;68932;47.410;8.232;2023-05-07T02:02:37;4.90;;;2.50;;
79464;SDS011;68932;47.410;8.232;2023-05-07T02:05:06;3.20;;;2.70;;
79464;SDS011;68932;47.410;8.232;2023-05-07T02:07:35;3.00;;;2.30;;
79464;SDS011;68932;47.410;8.232;2023-05-07T02:10:04;4.40;;;2.20;;
79464;SDS011;68932;47.410;8.232;2023-05-07T02:12:33;4.70;;;2.20;;
79464;SDS011;68932;47.410;8.232;2023-05-07T02:15:02;3.90;;;2.30;;
79464;SDS011;68932;47.410;8.232;2023-05-07T02:17:31;4.30;;;3.40;;
79464;SDS011;68932;47.410;8.232;2023-05-07T02:19:59;3.90;;;2.90;;
79464;SDS011;68932;47.410;8.232;2023-05-07T02:22:27;3.90;;;2.80;;
79464;SDS011;68932;47.410;8.232;2023-05-07T02:24:55;3.40;;;2.40;;
79464;SDS011;68932;47.410;8.232;2023-05-07T02:27:24;3.20;;;2.10;;
79464;SDS011;68932;47.410;8.232;2023-05-07T02:29:52;3.00;;;2.70;;
79464;SDS011;68932;47.410;8.232;2023-05-07T02:32:20;4.20;;;2.70;;
79464;SDS011;68932;47.410;8.232;2023-05-07T02:34:51;3.40;;;2.80;;
79464;SDS011;68932;47.410;8.232;2023-05-07T02:37:19;2.90;;;2.60;;
79464;SDS011;68932;47.410;8.232;2023-05-07T02:39:48;5.10;;;2.90;;
79464;SDS011;68932;47.410;8.232;2023-05-07T02:42:16;5.20;;;3.40;;
79464;SDS011;68932;47.410;8.232;2023-05-07T02:44:44;6.10;;;2.90;;
79464;SDS011;68932;47.410;8.232;2023-05-07T02:47:13;5.10;;;3.30;;
79464;SDS011;68932;47.410;8.232;2023-05-07T02:49:41;4.40;;;3.00;;
79464;SDS011;68932;47.410;8.232;2023-05-07T02:52:09;4.10;;;3.20;;
79464;SDS011;68932;47.410;8.232;2023-05-07T02:54:38;3.80;;;3.30;;
79464;SDS011;68932;47.410;8.232;2023-05-07T02:57:06;3.50;;;3.10;;
79464;SDS011;68932;47.410;8.232;2023-05-07T02:59:34;3.80;;;2.50;;
79464;SDS011;68932;47.410;8.232;2023-05-07T03:02:03;4.50;;;3.00;;
79464;SDS011;68932;47.410;8.232;2023-05-07T03:04:31;3.30;;;2.80;;
79464;SDS011;68932;47.410;8.232;2023-05-07T03:06:59;4.30;;;3.20;;
79464;SDS011;68932;47.410;8.232;2023-05-07T03:09:27;5.00;;;3.10;;
79464;SDS011;68932;47.410;8.232;2023-05-07T03:11:56;4.20;;;3.00;;
79464;SDS011;68932;47.410;8.232;2023-05-07T03:14:24;4.10;;;3.20;;
79464;SDS011;68932;47.410;8.232;2023-05-07T03:16:52;4.40;;;3.10;;
79464;SDS011;68932;47.410;8.232;2023-05-07T03:19:21;3.70;;;3.20;;
79464;SDS011;68932;47.410;8.232;2023-05-07T03:21:49;5.10;;;3.90;;
79464;SDS011;68932;47.410;8.232;2023-05-07T03:24:17;4.80;;;3.30;;
79464;SDS011;68932;47.410;8.232;2023-05-07T03:26:46;4.70;;;3.40;;
79464;SDS011;68932;47.410;8.232;2023-05-07T03:29:14;6.30;;;4.10;;
79464;SDS011;68932;47.410;8.232;2023-05-07T03:31:43;7.10;;;4.20;;
79464;SDS011;68932;47.410;8.232;2023-05-07T03:34:11;4.50;;;3.70;;
79464;SDS011;68932;47.410;8.232;2023-05-07T03:36:39;4.40;;;3.40;;
79464;SDS011;68932;47.410;8.232;2023-05-07T03:39:07;5.10;;;4.60;;
79464;SDS011;68932;47.410;8.232;2023-05-07T03:41:36;5.10;;;3.40;;
79464;SDS011;68932;47.410;8.232;2023-05-07T03:44:04;7.10;;;4.40;;
79464;SDS011;68932;47.410;8.232;2023-05-07T03:46:33;5.20;;;3.80;;
79464;SDS011;68932;47.410;8.232;2023-05-07T03:49:01;5.20;;;3.70;;
79464;SDS011;68932;47.410;8.232;2023-05-07T03:51:29;4.40;;;3.90;;
79464;SDS011;68932;47.410;8.232;2023-05-07T03:53:58;4.10;;;3.30;;
79464;SDS011;68932;47.410;8.232;2023-05-07T03:56:26;4.30;;;3.50;;
79464;SDS011;68932;47.410;8.232;2023-05-07T03:58:54;3.90;;;3.50;;
79464;SDS011;68932;47.410;8.232;2023-05-07T04:01:23;5.70;;;3.60;;
79464;SDS011;68932;47.410;8.232;2023-05-07T04:03:51;5.00;;;4.40;;
79464;SDS011;68932;47.410;8.232;2023-05-07T04:06:19;4.20;;;3.30;;
79464;SDS011;68932;47.410;8.232;2023-05-07T04:08:47;6.10;;;3.60;;
79464;SDS011;68932;47.410;8.232;2023-05-07T04:11:16;4.60;;;3.50;;
79464;SDS011;68932;47.410;8.232;2023-05-07T04:13:44;5.00;;;3.70;;
79464;SDS011;68932;47.410;8.232;2023-05-07T04:16:12;6.00;;;3.40;;
79464;SDS011;68932;47.410;8.232;2023-05-07T04:18:41;4.20;;;3.50;;
79464;SDS011;68932;47.410;8.232;2023-05-07T04:21:15;4.60;;;3.60;;
79464;SDS011;68932;47.410;8.232;2023-05-07T04:23:44;4.20;;;3.80;;
79464;SDS011;68932;47.410;8.232;2023-05-07T04:26:12;4.80;;;2.90;;
79464;SDS011;68932;47.410;8.232;2023-05-07T04:28:41;6.20;;;3.70;;
79464;SDS011;68932;47.410;8.232;2023-05-07T04:31:09;3.70;;;2.80;;
79464;SDS011;68932;47.410;8.232;2023-05-07T04:33:38;4.30;;;2.90;;
79464;SDS011;68932;47.410;8.232;2023-05-07T04:36:07;4.40;;;3.60;;
79464;SDS011;68932;47.410;8.232;2023-05-07T04:38:35;5.70;;;3.80;;
79464;SDS011;68932;47.410;8.232;2023-05-07T04:41:04;5.00;;;3.90;;
79464;SDS011;68932;47.410;8.232;2023-05-07T04:43:33;5.50;;;4.20;;
79464;SDS011;68932;47.410;8.232;2023-05-07T04:46:01;6.60;;;3.80;;
79464;SDS011;68932;47.410;8.232;2023-05-07T04:48:29;5.40;;;3.80;;
79464;SDS011;68932;47.410;8.232;2023-05-07T04:50:58;6.30;;;4.30;;
79464;SDS011;68932;47.410;8.232;2023-05-07T04:53:26;5.20;;;3.80;;
79464;SDS011;68932;47.410;8.232;2023-05-07T04:55:57;5.90;;;3.70;;
79464;SDS011;68932;47.410;8.232;2023-05-07T04:58:26;5.20;;;3.60;;
79464;SDS011;68932;47.410;8.232;2023-05-07T05:00:54;5.20;;;3.80;;
79464;SDS011;68932;47.410;8.232;2023-05-07T05:03:22;5.10;;;3.80;;
79464;SDS011;68932;47.410;8.232;2023-05-07T05:05:51;7.10;;;4.00;;
79464;SDS011;68932;47.410;8.232;2023-05-07T05:08:19;8.00;;;3.80;;
79464;SDS011;68932;47.410;8.232;2023-05-07T05:10:47;5.40;;;4.20;;
79464;SDS011;68932;47.410;8.232;2023-05-07T05:13:15;5.20;;;4.10;;
79464;SDS011;68932;47.410;8.232;2023-05-07T05:15:44;4.50;;;3.60;;
79464;SDS011;68932;47.410;8.232;2023-05-07T05:18:12;4.80;;;4.30;;
79464;SDS011;68932;47.410;8.232;2023-05-07T05:20:40;6.10;;;4.40;;
79464;SDS011;68932;47.410;8.232;2023-05-07T05:23:09;5.40;;;4.30;;
79464;SDS011;68932;47.410;8.232;2023-05-07T05:25:37;6.00;;;4.30;;
79464;SDS011;68932;47.410;8.232;2023-05-07T05:28:05;5.20;;;2.90;;
79464;SDS011;68932;47.410;8.232;2023-05-07T05:30:33;7.30;;;3.80;;
79464;SDS011;68932;47.410;8.232;2023-05-07T05:33:02;4.10;;;3.00;;
79464;SDS011;68932;47.410;8.232;2023-05-07T05:35:30;4.70;;;4.00;;
79464;SDS011;68932;47.410;8.232;2023-05-07T05:37:58;4.70;;;3.60;;
79464;SDS011;68932;47.410;8.232;2023-05-07T05:40:26;5.50;;;3.90;;
79464;SDS011;68932;47.410;8.232;2023-05-07T05:42:55;4.40;;;3.50;;
79464;SDS011;68932;47.410;8.232;2023-05-07T05:45:23;4.40;;;3.50;;
79464;SDS011;68932;47.410;8.232;2023-05-07T05:47:52;4.10;;;3.70;;
79464;SDS011;68932;47.410;8.232;2023-05-07T05:50:22;4.00;;;3.20;;
79464;SDS011;68932;47.410;8.232;2023-05-07T05:52:50;4.60;;;3.70;;
79464;SDS011;68932;47.410;8.232;2023-05-07T05:55:18;4.20;;;3.50;;
79464;SDS011;68932;47.410;8.232;2023-05-07T05:57:47;4.30;;;3.60;;
79464;SDS011;68932;47.410;8.232;2023-05-07T06:00:16;5.40;;;3.30;;
79464;SDS011;68932;47.410;8.232;2023-05-07T06:02:45;6.10;;;3.40;;
79464;SDS011;68932;47.410;8.232;2023-05-07T06:05:13;6.00;;;4.10;;
79464;SDS011;68932;47.410;8.232;2023-05-07T06:07:41;3.70;;;3.00;;
79464;SDS011;68932;47.410;8.232;2023-05-07T06:10:10;5.10;;;4.10;;
79464;SDS011;68932;47.410;8.232;2023-05-07T06:12:38;5.40;;;4.00;;
79464;SDS011;68932;47.410;8.232;2023-05-07T06:15:07;8.30;;;4.10;;
79464;SDS011;68932;47.410;8.232;2023-05-07T06:17:36;6.40;;;4.50;;
79464;SDS011;68932;47.410;8.232;2023-05-07T06:20:06;5.20;;;4.00;;
79464;SDS011;68932;47.410;8.232;2023-05-07T06:22:35;8.20;;;5.00;;
79464;SDS011;68932;47.410;8.232;2023-05-07T06:25:04;6.10;;;4.40;;
79464;SDS011;68932;47.410;8.232;2023-05-07T06:27:33;5.20;;;4.50;;
79464;SDS011;68932;47.410;8.232;2023-05-07T06:30:02;5.80;;;4.40;;
79464;SDS011;68932;47.410;8.232;2023-05-07T06:32:31;8.10;;;4.90;;
79464;SDS011;68932;47.410;8.232;2023-05-07T06:34:59;6.90;;;4.70;;
79464;SDS011;68932;47.410;8.232;2023-05-07T06:37:28;7.10;;;5.40;;
79464;SDS011;68932;47.410;8.232;2023-05-07T06:39:56;6.20;;;4.50;;
79464;SDS011;68932;47.410;8.232;2023-05-07T06:42:24;3.60;;;3.00;;
79464;SDS011;68932;47.410;8.232;2023-05-07T06:44:52;6.80;;;4.80;;
79464;SDS011;68932;47.410;8.232;2023-05-07T06:47:21;6.20;;;5.20;;
79464;SDS011;68932;47.410;8.232;2023-05-07T06:49:49;5.60;;;4.60;;
79464;SDS011;68932;47.410;8.232;2023-05-07T06:52:17;6.20;;;4.70;;
79464;SDS011;68932;47.410;8.232;2023-05-07T06:54:45;6.10;;;5.00;;
79464;SDS011;68932;47.410;8.232;2023-05-07T06:57:14;6.10;;;4.10;;
79464;SDS011;68932;47.410;8.232;2023-05-07T06:59:42;5.00;;;4.40;;
79464;SDS011;68932;47.410;8.232;2023-05-07T07:02:10;6.10;;;5.00;;
79464;SDS011;68932;47.410;8.232;2023-05-07T07:04:38;5.20;;;4.20;;
79464;SDS011;68932;47.410;8.232;2023-05-07T07:07:07;5.50;;;4.60;;
79464;SDS011;68932;47.410;8.232;2023-05-07T07:09:35;5.70;;;4.20;;
79464;SDS011;68932;47.410;8.232;2023-05-07T07:12:04;5.80;;;4.20;;
79464;SDS011;68932;47.410;8.232;2023-05-07T07:14:32;6.20;;;3.90;;
79464;SDS011;68932;47.410;8.232;2023-05-07T07:17:01;5.60;;;4.30;;
79464;SDS011;68932;47.410;8.232;2023-05-07T07:19:29;4.50;;;3.50;;
79464;SDS011;68932;47.410;8.232;2023-05-07T07:21:57;4.90;;;4.50;;
79464;SDS011;68932;47.410;8.232;2023-05-07T07:24:26;5.50;;;4.10;;
79464;SDS011;68932;47.410;8.232;2023-05-07T07:26:54;6.00;;;4.10;;
79464;SDS011;68932;47.410;8.232;2023-05-07T07:29:22;5.90;;;4.70;;
79464;SDS011;68932;47.410;8.232;2023-05-07T07:31:50;4.70;;;4.20;;
79464;SDS011;68932;47.410;8.232;2023-05-07T07:34:19;4.70;;;4.00;;
79464;SDS011;68932;47.410;8.232;2023-05-07T07:36:47;4.90;;;4.00;;
79464;SDS011;68932;47.410;8.232;2023-05-07T07:39:15;4.40;;;4.00;;
79464;SDS011;68932;47.410;8.232;2023-05-07T07:41:44;5.80;;;4.40;;
79464;SDS011;68932;47.410;8.232;2023-05-07T07:44:12;5.30;;;4.20;;
79464;SDS011;68932;47.410;8.232;2023-05-07T07:46:40;5.20;;;4.10;;
79464;SDS011;68932;47.410;8.232;2023-05-07T07:49:09;4.80;;;3.90;;
79464;SDS011;68932;47.410;8.232;2023-05-07T07:51:37;5.90;;;4.10;;
79464;SDS011;68932;47.410;8.232;2023-05-07T07:54:05;6.80;;;3.90;;
79464;SDS011;68932;47.410;8.232;2023-05-07T07:56:34;4.60;;;3.80;;
79464;SDS011;68932;47.410;8.232;2023-05-07T07:59:02;6.30;;;4.10;;
79464;SDS011;68932;47.410;8.232;2023-05-07T08:01:31;5.10;;;3.70;;
79464;SDS011;68932;47.410;8.232;2023-05-07T08:04:00;4.30;;;3.90;;
79464;SDS011;68932;47.410;8.232;2023-05-07T08:06:28;4.10;;;3.70;;
79464;SDS011;68932;47.410;8.232;2023-05-07T08:08:57;4.70;;;3.70;;
79464;SDS011;68932;47.410;8.232;2023-05-07T08:11:25;4.90;;;4.40;;
79464;SDS011;68932;47.410;8.232;2023-05-07T08:13:53;5.20;;;3.30;;
79464;SDS011;68932;47.410;8.232;2023-05-07T08:16:22;6.60;;;4.00;;
79464;SDS011;68932;47.410;8.232;2023-05-07T08:18:50;5.50;;;4.50;;
79464;SDS011;68932;47.410;8.232;2023-05-07T08:21:18;4.10;;;3.20;;
79464;SDS011;68932;47.410;8.232;2023-05-07T08:23:47;5.10;;;3.90;;
79464;SDS011;68932;47.410;8.232;2023-05-07T08:26:16;4.10;;;3.30;;
79464;SDS011;68932;47.410;8.232;2023-05-07T08:28:44;4.40;;;3.70;;
79464;SDS011;68932;47.410;8.232;2023-05-07T08:31:12;5.20;;;4.10;;
79464;SDS011;68932;47.410;8.232;2023-05-07T08:33:41;6.00;;;4.60;;
79464;SDS011;68932;47.410;8.232;2023-05-07T08:36:09;4.60;;;3.50;;
79464;SDS011;68932;47.410;8.232;2023-05-07T08:38:37;4.10;;;3.40;;
79464;SDS011;68932;47.410;8.232;2023-05-07T08:41:06;4.30;;;3.30;;
79464;SDS011;68932;47.410;8.232;2023-05-07T08:43:36;4.20;;;3.60;;
79464;SDS011;68932;47.410;8.232;2023-05-07T08:46:07;4.90;;;3.50;;
79464;SDS011;68932;47.410;8.232;2023-05-07T08:48:37;3.90;;;3.50;;
79464;SDS011;68932;47.410;8.232;2023-05-07T08:51:06;6.50;;;4.10;;
79464;SDS011;68932;47.410;8.232;2023-05-07T08:53:35;5.80;;;3.90;;
79464;SDS011;68932;47.410;8.232;2023-05-07T08:56:07;5.10;;;3.60;;
79464;SDS011;68932;47.410;8.232;2023-05-07T08:58:36;4.60;;;3.80;;
79464;SDS011;68932;47.410;8.232;2023-05-07T09:01:07;4.40;;;3.90;;
79464;SDS011;68932;47.410;8.232;2023-05-07T09:03:36;5.40;;;4.30;;
79464;SDS011;68932;47.410;8.232;2023-05-07T09:06:05;6.30;;;4.00;;
79464;SDS011;68932;47.410;8.232;2023-05-07T09:08:34;4.60;;;4.20;;
79464;SDS011;68932;47.410;8.232;2023-05-07T09:11:03;5.60;;;3.80;;
79464;SDS011;68932;47.410;8.232;2023-05-07T09:13:32;5.10;;;4.20;;
79464;SDS011;68932;47.410;8.232;2023-05-07T09:16:01;4.10;;;3.60;;
79464;SDS011;68932;47.410;8.232;2023-05-07T09:18:41;3.90;;;3.00;;
79464;SDS011;68932;47.410;8.232;2023-05-07T09:23:38;4.60;;;3.70;;
79464;SDS011;68932;47.410;8.232;2023-05-07T09:26:06;7.30;;;3.30;;
79464;SDS011;68932;47.410;8.232;2023-05-07T09:28:35;4.40;;;3.90;;
79464;SDS011;68932;47.410;8.232;2023-05-07T09:31:06;4.30;;;3.80;;
79464;SDS011;68932;47.410;8.232;2023-05-07T09:33:35;4.30;;;4.00;;
79464;SDS011;68932;47.410;8.232;2023-05-07T09:36:04;5.00;;;4.10;;
79464;SDS011;68932;47.410;8.232;2023-05-07T09:38:35;4.00;;;3.20;;
79464;SDS011;68932;47.410;8.232;2023-05-07T09:41:04;5.00;;;3.10;;
79464;SDS011;68932;47.410;8.232;2023-05-07T09:43:34;4.30;;;3.60;;
79464;SDS011;68932;47.410;8.232;2023-05-07T09:46:11;5.00;;;3.60;;
79464;SDS011;68932;47.410;8.232;2023-05-07T09:48:41;4.30;;;3.20;;
79464;SDS011;68932;47.410;8.232;2023-05-07T09:51:14;5.50;;;2.80;;
79464;SDS011;68932;47.410;8.232;2023-05-07T09:53:46;3.90;;;3.50;;
79464;SDS011;68932;47.410;8.232;2023-05-07T09:56:16;5.90;;;3.80;;
79464;SDS011;68932;47.410;8.232;2023-05-07T09:58:46;5.70;;;3.50;;
79464;SDS011;68932;47.410;8.232;2023-05-07T10:01:15;6.00;;;3.40;;
79464;SDS011;68932;47.410;8.232;2023-05-07T10:03:45;4.00;;;3.00;;
79464;SDS011;68932;47.410;8.232;2023-05-07T10:06:16;5.30;;;3.60;;
79464;SDS011;68932;47.410;8.232;2023-05-07T10:08:45;6.90;;;4.00;;
79464;SDS011;68932;47.410;8.232;2023-05-07T10:11:14;5.20;;;3.50;;
79464;SDS011;68932;47.410;8.232;2023-05-07T10:13:44;4.40;;;3.50;;
79464;SDS011;68932;47.410;8.232;2023-05-07T10:16:14;5.00;;;3.00;;
79464;SDS011;68932;47.410;8.232;2023-05-07T10:18:43;4.70;;;3.90;;
79464;SDS011;68932;47.410;8.232;2023-05-07T10:21:13;4.70;;;3.40;;
79464;SDS011;68932;47.410;8.232;2023-05-07T10:23:45;5.60;;;3.80;;
79464;SDS011;68932;47.410;8.232;2023-05-07T10:26:18;4.00;;;3.60;;
79464;SDS011;68932;47.410;8.232;2023-05-07T10:28:49;4.90;;;3.80;;
79464;SDS011;68932;47.410;8.232;2023-05-07T10:31:27;4.60;;;3.10;;
79464;SDS011;68932;47.410;8.232;2023-05-07T10:34:12;6.30;;;4.10;;
79464;SDS011;68932;47.410;8.232;2023-05-07T10:36:45;5.60;;;3.50;;
79464;SDS011;68932;47.410;8.232;2023-05-07T10:39:15;6.20;;;3.70;;
79464;SDS011;68932;47.410;8.232;2023-05-07T10:41:43;5.50;;;3.40;;
79464;SDS011;68932;47.410;8.232;2023-05-07T10:44:12;4.90;;;3.40;;
79464;SDS011;68932;47.410;8.232;2023-05-07T10:47:04;4.90;;;3.80;;
79464;SDS011;68932;47.410;8.232;2023-05-07T10:49:35;5.00;;;3.40;;
79464;SDS011;68932;47.410;8.232;2023-05-07T10:52:24;5.20;;;3.70;;
79464;SDS011;68932;47.410;8.232;2023-05-07T10:57:47;4.20;;;3.20;;
79464;SDS011;68932;47.410;8.232;2023-05-07T11:03:10;4.30;;;3.40;;
79464;SDS011;68932;47.410;8.232;2023-05-07T11:05:39;4.20;;;3.80;;
79464;SDS011;68932;47.410;8.232;2023-05-07T11:08:08;4.60;;;3.80;;
79464;SDS011;68932;47.410;8.232;2023-05-07T11:10:49;4.70;;;2.80;;
79464;SDS011;68932;47.410;8.232;2023-05-07T11:16:20;3.70;;;2.90;;
79464;SDS011;68932;47.410;8.232;2023-05-07T11:18:49;4.50;;;3.60;;
79464;SDS011;68932;47.410;8.232;2023-05-07T11:24:02;3.30;;;2.60;;
79464;SDS011;68932;47.410;8.232;2023-05-07T11:26:41;4.20;;;3.60;;
79464;SDS011;68932;47.410;8.232;2023-05-07T11:29:14;4.40;;;3.60;;
79464;SDS011;68932;47.410;8.232;2023-05-07T11:31:44;4.90;;;3.90;;
79464;SDS011;68932;47.410;8.232;2023-05-07T11:34:16;4.40;;;3.80;;
79464;SDS011;68932;47.410;8.232;2023-05-07T11:36:49;5.50;;;3.30;;
79464;SDS011;68932;47.410;8.232;2023-05-07T11:39:24;3.90;;;3.30;;
79464;SDS011;68932;47.410;8.232;2023-05-07T11:41:54;5.30;;;3.80;;
79464;SDS011;68932;47.410;8.232;2023-05-07T11:44:22;6.10;;;3.60;;
79464;SDS011;68932;47.410;8.232;2023-05-07T11:46:50;5.40;;;3.40;;
79464;SDS011;68932;47.410;8.232;2023-05-07T11:49:19;4.90;;;3.90;;
79464;SDS011;68932;47.410;8.232;2023-05-07T11:51:51;5.50;;;3.60;;
79464;SDS011;68932;47.410;8.232;2023-05-07T11:54:19;6.60;;;3.90;;
79464;SDS011;68932;47.410;8.232;2023-05-07T11:56:47;4.80;;;3.50;;
79464;SDS011;68932;47.410;8.232;2023-05-07T11:59:19;3.70;;;2.80;;
79464;SDS011;68932;47.410;8.232;2023-05-07T12:01:48;3.60;;;2.70;;
79464;SDS011;68932;47.410;8.232;2023-05-07T12:04:20;5.60;;;2.90;;
79464;SDS011;68932;47.410;8.232;2023-05-07T12:06:48;4.00;;;3.40;;
79464;SDS011;68932;47.410;8.232;2023-05-07T12:09:19;5.50;;;3.50;;
79464;SDS011;68932;47.410;8.232;2023-05-07T12:11:48;3.10;;;2.00;;
79464;SDS011;68932;47.410;8.232;2023-05-07T12:14:17;3.20;;;2.90;;
79464;SDS011;68932;47.410;8.232;2023-05-07T12:16:46;4.80;;;3.00;;
79464;SDS011;68932;47.410;8.232;2023-05-07T12:19:14;3.90;;;2.90;;
79464;SDS011;68932;47.410;8.232;2023-05-07T12:21:43;5.10;;;2.00;;
79464;SDS011;68932;47.410;8.232;2023-05-07T12:24:11;3.70;;;2.80;;
79464;SDS011;68932;47.410;8.232;2023-05-07T12:26:40;4.60;;;2.80;;
79464;SDS011;68932;47.410;8.232;2023-05-07T12:29:09;2.90;;;2.30;;
79464;SDS011;68932;47.410;8.232;2023-05-07T12:31:38;4.70;;;3.30;;
79464;SDS011;68932;47.410;8.232;2023-05-07T12:34:08;3.80;;;2.60;;
79464;SDS011;68932;47.410;8.232;2023-05-07T12:36:39;3.40;;;2.10;;
79464;SDS011;68932;47.410;8.232;2023-05-07T12:39:08;4.20;;;2.30;;
79464;SDS011;68932;47.410;8.232;2023-05-07T12:41:55;2.60;;;2.00;;
79464;SDS011;68932;47.410;8.232;2023-05-07T12:44:25;2.40;;;1.50;;
79464;SDS011;68932;47.410;8.232;2023-05-07T12:46:57;2.10;;;1.60;;
79464;SDS011;68932;47.410;8.232;2023-05-07T12:49:27;3.90;;;2.20;;
79464;SDS011;68932;47.410;8.232;2023-05-07T12:51:56;4.00;;;2.80;;
79464;SDS011;68932;47.410;8.232;2023-05-07T12:54:31;2.90;;;2.00;;
79464;SDS011;68932;47.410;8.232;2023-05-07T12:57:03;3.00;;;1.90;;
79464;SDS011;68932;47.410;8.232;2023-05-07T12:59:34;2.60;;;2.00;;
79464;SDS011;68932;47.410;8.232;2023-05-07T13:02:04;3.90;;;2.30;;
79464;SDS011;68932;47.410;8.232;2023-05-07T13:04:33;2.80;;;1.80;;
79464;SDS011;68932;47.410;8.232;2023-05-07T13:07:01;2.70;;;2.00;;
79464;SDS011;68932;47.410;8.232;2023-05-07T13:09:30;2.80;;;1.70;;
79464;SDS011;68932;47.410;8.232;2023-05-07T13:11:58;2.90;;;2.20;;
79464;SDS011;68932;47.410;8.232;2023-05-07T13:14:27;2.50;;;2.30;;
79464;SDS011;68932;47.410;8.232;2023-05-07T13:16:55;2.40;;;1.80;;
79464;SDS011;68932;47.410;8.232;2023-05-07T13:19:24;2.60;;;1.70;;
79464;SDS011;68932;47.410;8.232;2023-05-07T13:21:52;1.50;;;1.30;;
79464;SDS011;68932;47.410;8.232;2023-05-07T13:24:20;1.90;;;1.20;;
79464;SDS011;68932;47.410;8.232;2023-05-07T13:26:48;2.00;;;1.80;;
79464;SDS011;68932;47.410;8.232;2023-05-07T13:29:16;2.10;;;1.10;;
79464;SDS011;68932;47.410;8.232;2023-05-07T13:31:45;2.00;;;1.70;;
79464;SDS011;68932;47.410;8.232;2023-05-07T13:34:13;1.50;;;0.90;;
79464;SDS011;68932;47.410;8.232;2023-05-07T13:36:41;1.70;;;1.00;;
79464;SDS011;68932;47.410;8.232;2023-05-07T13:39:09;2.20;;;1.80;;
79464;SDS011;68932;47.410;8.232;2023-05-07T13:41:38;2.70;;;1.40;;
79464;SDS011;68932;47.410;8.232;2023-05-07T13:44:06;2.10;;;1.60;;
79464;SDS011;68932;47.410;8.232;2023-05-07T13:46:34;4.10;;;1.60;;
79464;SDS011;68932;47.410;8.232;2023-05-07T13:49:03;1.80;;;1.30;;
79464;SDS011;68932;47.410;8.232;2023-05-07T13:51:31;2.50;;;1.80;;
79464;SDS011;68932;47.410;8.232;2023-05-07T13:53:59;2.00;;;1.80;;
79464;SDS011;68932;47.410;8.232;2023-05-07T13:56:28;2.40;;;2.10;;
79464;SDS011;68932;47.410;8.232;2023-05-07T13:58:56;2.10;;;1.80;;
79464;SDS011;68932;47.410;8.232;2023-05-07T14:01:24;2.50;;;1.90;;
79464;SDS011;68932;47.410;8.232;2023-05-07T14:03:53;2.60;;;1.80;;
79464;SDS011;68932;47.410;8.232;2023-05-07T14:06:21;3.70;;;2.80;;
79464;SDS011;68932;47.410;8.232;2023-05-07T14:08:50;2.10;;;1.50;;
79464;SDS011;68932;47.410;8.232;2023-05-07T14:11:18;3.00;;;2.20;;
79464;SDS011;68932;47.410;8.232;2023-05-07T14:13:46;3.20;;;2.20;;
79464;SDS011;68932;47.410;8.232;2023-05-07T14:16:15;4.10;;;2.50;;
79464;SDS011;68932;47.410;8.232;2023-05-07T14:18:43;2.20;;;1.80;;
79464;SDS011;68932;47.410;8.232;2023-05-07T14:21:11;2.10;;;1.40;;
79464;SDS011;68932;47.410;8.232;2023-05-07T14:23:39;2.50;;;2.00;;
79464;SDS011;68932;47.410;8.232;2023-05-07T14:26:08;3.10;;;2.10;;
79464;SDS011;68932;47.410;8.232;2023-05-07T14:28:36;3.90;;;2.30;;
79464;SDS011;68932;47.410;8.232;2023-05-07T14:31:04;2.70;;;2.10;;
79464;SDS011;68932;47.410;8.232;2023-05-07T14:33:32;2.70;;;1.70;;
79464;SDS011;68932;47.410;8.232;2023-05-07T14:36:00;2.20;;;1.30;;
79464;SDS011;68932;47.410;8.232;2023-05-07T14:38:29;2.40;;;1.30;;
79464;SDS011;68932;47.410;8.232;2023-05-07T14:40:57;2.40;;;1.90;;
79464;SDS011;68932;47.410;8.232;2023-05-07T14:43:26;3.50;;;2.10;;
79464;SDS011;68932;47.410;8.232;2023-05-07T14:45:54;3.50;;;1.80;;
79464;SDS011;68932;47.410;8.232;2023-05-07T14:48:22;2.00;;;1.50;;
79464;SDS011;68932;47.410;8.232;2023-05-07T14:50:51;4.60;;;1.90;;
79464;SDS011;68932;47.410;8.232;2023-05-07T14:53:19;3.20;;;1.90;;
79464;SDS011;68932;47.410;8.232;2023-05-07T14:55:48;2.20;;;1.70;;
79464;SDS011;68932;47.410;8.232;2023-05-07T14:58:16;2.70;;;2.10;;
79464;SDS011;68932;47.410;8.232;2023-05-07T15:00:44;2.10;;;1.90;;
79464;SDS011;68932;47.410;8.232;2023-05-07T15:03:13;2.80;;;2.00;;
79464;SDS011;68932;47.410;8.232;2023-05-07T15:05:42;2.90;;;2.00;;
79464;SDS011;68932;47.410;8.232;2023-05-07T15:08:10;3.00;;;1.50;;
79464;SDS011;68932;47.410;8.232;2023-05-07T15:10:38;2.50;;;1.40;;
79464;SDS011;68932;47.410;8.232;2023-05-07T15:13:06;2.30;;;2.10;;